createdAt,value
2018-08-24T00:00:23.674Z,68.91
2018-08-24T00:00:49.808Z,68.91
2018-08-24T00:01:15.942Z,68.72
2018-08-24T00:01:42.130Z,68.62
2018-08-24T00:02:08.260Z,69.17
2018-08-24T00:02:34.427Z,69.3
2018-08-24T00:03:00.563Z,69.2
2018-08-24T00:03:26.699Z,69.3
2018-08-24T00:03:52.861Z,69.49
2018-08-24T00:04:19.003Z,69.1
2018-08-24T00:04:45.140Z,69.59
2018-08-24T00:05:11.294Z,69.98
2018-08-24T00:05:37.437Z,69.88
2018-08-24T00:06:03.568Z,69.98
2018-08-24T00:06:29.707Z,70.26
2018-08-24T00:06:55.862Z,70.46
2018-08-24T00:07:22.077Z,70.36
2018-08-24T00:07:48.166Z,70.36
2018-08-24T00:08:14.299Z,70.65
2018-08-24T00:08:40.458Z,70.65
2018-08-24T00:09:06.595Z,70.65
2018-08-24T00:09:32.740Z,71.23
2018-08-24T00:09:58.870Z,70.56
2018-08-24T00:10:25.014Z,70.94
2018-08-24T00:10:51.163Z,72.1
2018-08-24T00:11:17.296Z,71.91
2018-08-24T00:11:43.461Z,71.81
2018-08-24T00:12:09.597Z,71.81
2018-08-24T00:12:35.734Z,72.68
2018-08-24T00:13:01.895Z,72.68
2018-08-24T00:13:28.036Z,72.58
2018-08-24T00:13:54.189Z,72.39
2018-08-24T00:14:20.328Z,72.45
2018-08-24T00:14:46.460Z,72.16
2018-08-24T00:15:12.590Z,72.36
2018-08-24T00:15:38.773Z,72.78
2018-08-24T00:16:04.912Z,72.16
2018-08-24T00:16:31.043Z,72.16
2018-08-24T00:16:57.185Z,72.26
2018-08-24T00:17:23.346Z,72.2
2018-08-24T00:17:49.523Z,72.16
2018-08-24T00:18:15.662Z,72.36
2018-08-24T00:18:41.804Z,72.06
2018-08-24T00:19:07.931Z,72.84
2018-08-24T00:19:34.068Z,72.45
2018-08-24T00:20:00.206Z,72.45
2018-08-24T00:20:26.340Z,72.16
2018-08-24T00:20:52.493Z,72.58
2018-08-24T00:21:18.632Z,73.16
2018-08-24T00:21:44.764Z,72.94
2018-08-24T00:22:10.930Z,72.84
2018-08-24T00:22:37.099Z,72.84
2018-08-24T00:23:03.264Z,72.88
2018-08-24T00:23:29.404Z,73.13
2018-08-24T00:23:55.538Z,72.55
2018-08-24T00:24:21.678Z,73.52
2018-08-24T00:24:47.810Z,73.42
2018-08-24T00:25:13.950Z,73.32
2018-08-24T00:25:40.087Z,73.22
2018-08-24T00:26:06.223Z,73.03
2018-08-24T00:26:32.359Z,73.03
2018-08-24T00:26:58.495Z,73.52
2018-08-24T00:27:24.631Z,73.03
2018-08-24T00:27:50.767Z,73.22
2018-08-24T00:28:16.890Z,73.13
2018-08-24T00:28:43.029Z,73.52
2018-08-24T00:29:09.167Z,74.1
2018-08-24T00:29:35.328Z,73.8
2018-08-24T00:30:01.492Z,74.1
2018-08-24T00:30:27.642Z,72.94
2018-08-24T00:30:53.778Z,73.42
2018-08-24T00:31:19.936Z,73.22
2018-08-24T00:31:46.173Z,73.22
2018-08-24T00:32:12.227Z,73.61
2018-08-24T00:32:38.357Z,73.8
2018-08-24T00:33:04.494Z,73.61
2018-08-24T00:33:30.633Z,73.42
2018-08-24T00:33:56.774Z,73.8
2018-08-24T00:34:22.911Z,73.8
2018-08-24T00:34:49.091Z,73.61
2018-08-24T00:35:15.252Z,74
2018-08-24T00:35:41.386Z,73.42
2018-08-24T00:36:07.526Z,74.1
2018-08-24T00:36:33.660Z,73.9
2018-08-24T00:36:59.798Z,73.8
2018-08-24T00:37:25.957Z,73.8
2018-08-24T00:37:52.098Z,73.61
2018-08-24T00:38:18.233Z,74.1
2018-08-24T00:38:44.369Z,73.9
2018-08-24T00:39:10.548Z,73.61
2018-08-24T00:39:36.686Z,74.1
2018-08-24T00:40:02.820Z,74.19
2018-08-24T00:40:28.962Z,74.29
2018-08-24T00:40:55.091Z,74.19
2018-08-24T00:41:21.223Z,74.29
2018-08-24T00:41:47.366Z,74.19
2018-08-24T00:42:13.503Z,74.48
2018-08-24T00:42:39.712Z,74.58
2018-08-24T00:43:05.810Z,73.9
2018-08-24T00:43:31.950Z,74.29
2018-08-24T00:43:58.104Z,74.48
2018-08-24T00:44:24.240Z,74.48
2018-08-24T00:44:50.374Z,74.29
2018-08-24T00:45:16.538Z,74.29
2018-08-24T00:45:42.678Z,74.29
2018-08-24T00:46:08.805Z,74.48
2018-08-24T00:46:34.973Z,74.48
2018-08-24T00:47:01.103Z,74.58
2018-08-24T00:47:27.268Z,74.29
2018-08-24T00:47:53.398Z,74.58
2018-08-24T00:48:19.540Z,74.38
2018-08-24T00:48:45.675Z,74.48
2018-08-24T00:49:11.811Z,73.61
2018-08-24T00:49:37.945Z,73.61
2018-08-24T00:50:04.114Z,73.52
2018-08-24T00:50:30.266Z,73.8
2018-08-24T00:50:56.398Z,74.1
2018-08-24T00:51:22.541Z,74.1
2018-08-24T00:51:48.670Z,74.48
2018-08-24T00:52:14.811Z,74.48
2018-08-24T00:52:40.964Z,74.44
2018-08-24T00:53:07.100Z,74.68
2018-08-24T00:53:33.242Z,74.19
2018-08-24T00:53:59.376Z,74.38
2018-08-24T00:54:25.509Z,74.25
2018-08-24T00:54:51.668Z,74.73
2018-08-24T00:55:17.805Z,74.68
2018-08-24T00:55:43.946Z,73.86
2018-08-24T00:56:10.105Z,73.67
2018-08-24T00:56:36.232Z,73.38
2018-08-24T00:57:02.399Z,73.58
2018-08-24T00:57:28.548Z,74.06
2018-08-24T00:57:54.690Z,73.67
2018-08-24T00:58:20.818Z,74.44
2018-08-24T00:58:46.963Z,74.25
2018-08-24T00:59:13.109Z,74.25
2018-08-24T00:59:39.256Z,74.54
2018-08-24T01:00:05.392Z,74.54
2018-08-24T01:00:31.528Z,74.54
2018-08-24T01:00:57.657Z,74.44
2018-08-24T01:01:23.799Z,74.44
2018-08-24T01:01:49.933Z,74.06
2018-08-24T01:02:16.071Z,74.25
2018-08-24T01:02:42.202Z,74.44
2018-08-24T01:03:08.330Z,74.64
2018-08-24T01:03:34.474Z,74.25
2018-08-24T01:04:00.605Z,74.25
2018-08-24T01:04:26.771Z,74.44
2018-08-24T01:04:52.905Z,74.77
2018-08-24T01:05:19.053Z,74.25
2018-08-24T01:05:45.187Z,74.16
2018-08-24T01:06:11.327Z,74.35
2018-08-24T01:06:37.458Z,74.44
2018-08-24T01:07:03.602Z,74.54
2018-08-24T01:07:29.833Z,73.77
2018-08-24T01:07:55.920Z,74.06
2018-08-24T01:08:22.064Z,73.67
2018-08-24T01:08:48.197Z,74.35
2018-08-24T01:09:14.377Z,74.48
2018-08-24T01:09:40.537Z,73.77
2018-08-24T01:10:06.705Z,73.58
2018-08-24T01:10:32.853Z,73.38
2018-08-24T01:10:58.993Z,73.48
2018-08-24T01:11:25.119Z,73.58
2018-08-24T01:11:51.254Z,73.58
2018-08-24T01:12:17.399Z,73.96
2018-08-24T01:12:43.539Z,73.86
2018-08-24T01:13:09.670Z,74.44
2018-08-24T01:13:35.808Z,74.16
2018-08-24T01:14:01.942Z,74.44
2018-08-24T01:14:28.084Z,74.44
2018-08-24T01:14:54.236Z,74.25
2018-08-24T01:15:20.372Z,74.35
2018-08-24T01:15:46.527Z,74.64
2018-08-24T01:16:12.694Z,74.44
2018-08-24T01:16:38.833Z,74.25
2018-08-24T01:17:04.994Z,74.25
2018-08-24T01:17:31.153Z,74.35
2018-08-24T01:17:57.283Z,74.44
2018-08-24T01:18:23.420Z,74.35
2018-08-24T01:18:49.561Z,74.64
2018-08-24T01:19:15.712Z,74.64
2018-08-24T01:19:41.890Z,74.83
2018-08-24T01:20:08.028Z,75.12
2018-08-24T01:20:34.164Z,74.44
2018-08-24T01:21:00.306Z,74.44
2018-08-24T01:21:26.469Z,74.93
2018-08-24T01:21:52.607Z,74.64
2018-08-24T01:22:18.755Z,74.64
2018-08-24T01:22:44.931Z,74.83
2018-08-24T01:23:11.075Z,74.93
2018-08-24T01:23:37.225Z,74.64
2018-08-24T01:24:03.366Z,74.93
2018-08-24T01:24:29.499Z,75.02
2018-08-24T01:24:55.637Z,74.73
2018-08-24T01:25:21.771Z,74.54
2018-08-24T01:25:47.925Z,74.54
2018-08-24T01:26:14.065Z,74.83
2018-08-24T01:26:40.204Z,74.54
2018-08-24T01:27:06.339Z,74.54
2018-08-24T01:27:32.481Z,74.64
2018-08-24T01:27:58.612Z,74.44
2018-08-24T01:28:24.745Z,74.64
2018-08-24T01:28:50.883Z,74.64
2018-08-24T01:29:17.020Z,74.54
2018-08-24T01:29:43.162Z,74.83
2018-08-24T01:30:09.310Z,74.54
2018-08-24T01:30:35.448Z,74.64
2018-08-24T01:31:01.585Z,74.54
2018-08-24T01:31:27.741Z,75.67
2018-08-24T01:31:53.907Z,75.37
2018-08-24T01:32:20.038Z,75.57
2018-08-24T01:32:46.200Z,75.22
2018-08-24T01:33:12.333Z,75.31
2018-08-24T01:33:38.465Z,75.41
2018-08-24T01:34:04.607Z,75.7
2018-08-24T01:34:30.737Z,75.79
2018-08-24T01:34:56.880Z,75.6
2018-08-24T01:35:23.074Z,75.99
2018-08-24T01:35:49.256Z,75.79
2018-08-24T01:36:15.427Z,75.51
2018-08-24T01:36:41.561Z,75.6
2018-08-24T01:37:07.720Z,75.89
2018-08-24T01:37:33.848Z,75.79
2018-08-24T01:37:59.994Z,75.89
2018-08-24T01:38:26.117Z,75.79
2018-08-24T01:38:52.248Z,75.31
2018-08-24T01:39:18.386Z,75.7
2018-08-24T01:39:44.548Z,75.12
2018-08-24T01:40:10.690Z,75.51
2018-08-24T01:40:36.822Z,75.51
2018-08-24T01:41:02.962Z,75.7
2018-08-24T01:41:29.086Z,75.22
2018-08-24T01:41:55.229Z,74.93
2018-08-24T01:42:21.368Z,74.93
2018-08-24T01:42:47.499Z,74.93
2018-08-24T01:43:13.644Z,74.73
2018-08-24T01:43:39.784Z,74.83
2018-08-24T01:44:05.922Z,74.83
2018-08-24T01:44:32.058Z,74.44
2018-08-24T01:44:58.192Z,74.89
2018-08-24T01:45:24.327Z,74.64
2018-08-24T01:45:50.462Z,74.83
2018-08-24T01:46:16.596Z,74.44
2018-08-24T01:46:42.735Z,73.48
2018-08-24T01:47:08.870Z,73.96
2018-08-24T01:47:35.004Z,72.9
2018-08-24T01:48:01.145Z,72.09
2018-08-24T01:48:27.277Z,72.09
2018-08-24T01:48:53.412Z,71.51
2018-08-24T01:49:19.549Z,71.9
2018-08-24T01:49:45.687Z,71.8
2018-08-24T01:50:11.822Z,72.19
2018-08-24T01:50:37.988Z,72.38
2018-08-24T01:51:04.120Z,72.38
2018-08-24T01:51:30.256Z,72.09
2018-08-24T01:51:56.399Z,72.13
2018-08-24T01:52:22.544Z,72.19
2018-08-24T01:52:48.702Z,72.32
2018-08-24T01:53:14.840Z,71.55
2018-08-24T01:53:40.972Z,71.64
2018-08-24T01:54:07.109Z,71.84
2018-08-24T01:54:33.246Z,71.84
2018-08-24T01:54:59.381Z,71.45
2018-08-24T01:55:25.516Z,71.64
2018-08-24T01:55:51.653Z,71.51
2018-08-24T01:56:17.786Z,71.55
2018-08-24T01:56:43.925Z,71.06
2018-08-24T01:57:10.089Z,71.16
2018-08-24T01:57:36.214Z,70.87
2018-08-24T01:58:02.377Z,71.36
2018-08-24T01:58:28.513Z,70.68
2018-08-24T01:58:54.658Z,71.36
2018-08-24T01:59:20.804Z,71.06
2018-08-24T01:59:46.962Z,71.16
2018-08-24T02:00:13.093Z,71.16
2018-08-24T02:00:39.229Z,71.16
2018-08-24T02:01:05.364Z,71.26
2018-08-24T02:01:31.505Z,70.68
2018-08-24T02:01:57.661Z,70.48
2018-08-24T02:02:23.801Z,70.39
2018-08-24T02:02:49.937Z,70.39
2018-08-24T02:03:16.100Z,69.9
2018-08-24T02:03:42.231Z,70.16
2018-08-24T02:04:08.367Z,70.45
2018-08-24T02:04:34.506Z,70.36
2018-08-24T02:05:00.640Z,70.45
2018-08-24T02:05:26.775Z,70.36
2018-08-24T02:05:52.911Z,70.36
2018-08-24T02:06:19.073Z,70.16
2018-08-24T02:06:45.216Z,69.97
2018-08-24T02:07:11.345Z,69.87
2018-08-24T02:07:37.479Z,69.97
2018-08-24T02:08:03.611Z,69.68
2018-08-24T02:08:29.745Z,69.68
2018-08-24T02:08:55.885Z,69.58
2018-08-24T02:09:22.025Z,69.49
2018-08-24T02:09:48.178Z,69.78
2018-08-24T02:10:14.314Z,68.43
2018-08-24T02:10:40.444Z,68.91
2018-08-24T02:11:06.590Z,68.71
2018-08-24T02:11:32.717Z,69
2018-08-24T02:11:58.861Z,68.91
2018-08-24T02:12:24.994Z,68.43
2018-08-24T02:12:51.125Z,68.81
2018-08-24T02:13:17.308Z,68.91
2018-08-24T02:13:43.444Z,68.62
2018-08-24T02:14:09.583Z,68.71
2018-08-24T02:14:35.819Z,67.85
2018-08-24T02:15:01.862Z,67.85
2018-08-24T02:15:27.996Z,68.43
2018-08-24T02:15:54.135Z,69
2018-08-24T02:16:20.261Z,69
2018-08-24T02:16:46.397Z,68.23
2018-08-24T02:17:12.531Z,67.85
2018-08-24T02:17:38.673Z,68.04
2018-08-24T02:18:04.805Z,67.65
2018-08-24T02:18:30.944Z,67.94
2018-08-24T02:18:57.090Z,67.94
2018-08-24T02:19:23.227Z,67.17
2018-08-24T02:19:49.387Z,66.69
2018-08-24T02:20:15.531Z,67.46
2018-08-24T02:20:41.687Z,67.17
2018-08-24T02:21:07.842Z,67.55
2018-08-24T02:21:33.979Z,66.97
2018-08-24T02:22:00.130Z,67.46
2018-08-24T02:22:26.270Z,66.88
2018-08-24T02:22:52.399Z,66.78
2018-08-24T02:23:18.540Z,66.3
2018-08-24T02:23:44.673Z,66.97
2018-08-24T02:24:10.826Z,66.59
2018-08-24T02:24:36.959Z,66.4
2018-08-24T02:25:03.132Z,65.82
2018-08-24T02:25:29.259Z,65.43
2018-08-24T02:25:55.401Z,65.11
2018-08-24T02:26:21.531Z,65.53
2018-08-24T02:26:47.696Z,65.24
2018-08-24T02:27:13.832Z,65.14
2018-08-24T02:27:39.974Z,65.24
2018-08-24T02:28:06.104Z,65.43
2018-08-24T02:28:32.240Z,65.34
2018-08-24T02:28:58.380Z,65.34
2018-08-24T02:29:24.519Z,64.66
2018-08-24T02:29:50.652Z,64.95
2018-08-24T02:30:16.837Z,64.76
2018-08-24T02:30:43.003Z,65.43
2018-08-24T02:31:09.184Z,65.53
2018-08-24T02:31:35.314Z,64.47
2018-08-24T02:32:01.451Z,64.28
2018-08-24T02:32:27.590Z,64.24
2018-08-24T02:32:53.750Z,64.15
2018-08-24T02:33:19.888Z,64.76
2018-08-24T02:33:46.023Z,64.18
2018-08-24T02:34:12.205Z,64.37
2018-08-24T02:34:38.334Z,64.15
2018-08-24T02:35:04.468Z,63.79
2018-08-24T02:35:30.607Z,63.79
2018-08-24T02:35:56.741Z,63.57
2018-08-24T02:36:22.872Z,63.76
2018-08-24T02:36:49.002Z,63.67
2018-08-24T02:37:15.140Z,63.57
2018-08-24T02:37:41.273Z,63.57
2018-08-24T02:38:07.405Z,63.47
2018-08-24T02:38:33.564Z,63.09
2018-08-24T02:38:59.747Z,63.37
2018-08-24T02:39:25.888Z,63.95
2018-08-24T02:39:52.042Z,63.67
2018-08-24T02:40:18.207Z,63.47
2018-08-24T02:40:44.369Z,63.67
2018-08-24T02:41:10.501Z,64.15
2018-08-24T02:41:36.645Z,63.76
2018-08-24T02:42:02.777Z,63.28
2018-08-24T02:42:28.935Z,63.28
2018-08-24T02:42:55.092Z,63.57
2018-08-24T02:43:21.255Z,63.18
2018-08-24T02:43:47.389Z,63.47
2018-08-24T02:44:13.517Z,63.57
2018-08-24T02:44:39.652Z,63.37
2018-08-24T02:45:05.845Z,64.05
2018-08-24T02:45:31.967Z,63.57
2018-08-24T02:45:58.095Z,63.67
2018-08-24T02:46:24.233Z,63.67
2018-08-24T02:46:50.370Z,63.85
2018-08-24T02:47:16.502Z,64.5
2018-08-24T02:47:42.704Z,64.31
2018-08-24T02:48:08.842Z,64.79
2018-08-24T02:48:34.984Z,64.43
2018-08-24T02:49:01.115Z,64.15
2018-08-24T02:49:27.255Z,64.53
2018-08-24T02:49:53.413Z,64.15
2018-08-24T02:50:19.541Z,64.43
2018-08-24T02:50:45.681Z,63.95
2018-08-24T02:51:11.840Z,64.21
2018-08-24T02:51:37.977Z,64.24
2018-08-24T02:52:04.113Z,64.21
2018-08-24T02:52:30.274Z,64.21
2018-08-24T02:52:56.419Z,64.31
2018-08-24T02:53:22.563Z,64.21
2018-08-24T02:53:48.719Z,63.63
2018-08-24T02:54:14.859Z,63.24
2018-08-24T02:54:41.041Z,64.02
2018-08-24T02:55:07.596Z,64.4
2018-08-24T02:55:33.730Z,63.92
2018-08-24T02:55:59.865Z,63.54
2018-08-24T02:56:26.000Z,63.54
2018-08-24T02:56:52.134Z,63.73
2018-08-24T02:57:18.279Z,63.44
2018-08-24T02:57:44.420Z,63.54
2018-08-24T02:58:10.571Z,64.31
2018-08-24T02:58:36.732Z,64.18
2018-08-24T02:59:02.891Z,64.21
2018-08-24T02:59:29.024Z,64.21
2018-08-24T02:59:55.160Z,64.59
2018-08-24T03:00:21.292Z,64.79
2018-08-24T03:00:47.436Z,64.69
2018-08-24T03:01:13.566Z,65.08
2018-08-24T03:01:39.722Z,65.08
2018-08-24T03:02:05.855Z,64.89
2018-08-24T03:02:32.035Z,65.47
2018-08-24T03:02:58.187Z,64.79
2018-08-24T03:03:24.323Z,64.98
2018-08-24T03:03:50.456Z,64.69
2018-08-24T03:04:16.584Z,64.11
2018-08-24T03:04:42.722Z,64.11
2018-08-24T03:05:08.906Z,64.02
2018-08-24T03:05:35.220Z,64.02
2018-08-24T03:06:01.164Z,64.31
2018-08-24T03:06:27.321Z,64.95
2018-08-24T03:06:53.457Z,65.56
2018-08-24T03:07:19.591Z,65.27
2018-08-24T03:07:45.744Z,65.43
2018-08-24T03:08:11.941Z,65.37
2018-08-24T03:08:38.068Z,65.47
2018-08-24T03:09:04.223Z,65.85
2018-08-24T03:09:30.362Z,66.43
2018-08-24T03:09:56.498Z,66.24
2018-08-24T03:10:22.658Z,66.14
2018-08-24T03:10:48.787Z,66.04
2018-08-24T03:11:14.915Z,66.43
2018-08-24T03:11:41.054Z,67
2018-08-24T03:12:07.214Z,66.82
2018-08-24T03:12:33.370Z,66.33
2018-08-24T03:12:59.512Z,66.33
2018-08-24T03:13:25.645Z,66.39
2018-08-24T03:13:51.786Z,66.91
2018-08-24T03:14:17.937Z,67.07
2018-08-24T03:14:44.097Z,67.1
2018-08-24T03:15:10.227Z,66.97
2018-08-24T03:15:36.382Z,67.49
2018-08-24T03:16:02.565Z,67.07
2018-08-24T03:16:28.722Z,67.36
2018-08-24T03:16:54.823Z,67.55
2018-08-24T03:17:20.976Z,67.55
2018-08-24T03:17:47.120Z,66.88
2018-08-24T03:18:13.275Z,67.3
2018-08-24T03:18:39.424Z,66.97
2018-08-24T03:19:05.596Z,67.68
2018-08-24T03:19:31.731Z,67.65
2018-08-24T03:19:57.915Z,68.04
2018-08-24T03:20:24.052Z,67.78
2018-08-24T03:20:50.183Z,67.74
2018-08-24T03:21:16.318Z,67.88
2018-08-24T03:21:42.487Z,67.88
2018-08-24T03:22:08.662Z,67.68
2018-08-24T03:22:34.825Z,67.4
2018-08-24T03:23:00.983Z,67
2018-08-24T03:23:27.122Z,67.1
2018-08-24T03:23:53.253Z,67.2
2018-08-24T03:24:19.403Z,66.91
2018-08-24T03:24:45.546Z,67
2018-08-24T03:25:11.689Z,67.4
2018-08-24T03:25:37.816Z,67.3
2018-08-24T03:26:03.951Z,67.68
2018-08-24T03:26:30.090Z,67.3
2018-08-24T03:26:56.226Z,67.2
2018-08-24T03:27:22.361Z,67.2
2018-08-24T03:27:48.499Z,67.1
2018-08-24T03:28:14.656Z,67.3
2018-08-24T03:28:40.791Z,67.4
2018-08-24T03:29:06.942Z,67.3
2018-08-24T03:29:33.076Z,67.4
2018-08-24T03:29:59.233Z,67.2
2018-08-24T03:30:25.432Z,67
2018-08-24T03:30:51.597Z,67.88
2018-08-24T03:31:17.748Z,67.65
2018-08-24T03:31:43.903Z,67.84
2018-08-24T03:32:10.052Z,68.32
2018-08-24T03:32:36.192Z,68.61
2018-08-24T03:33:02.348Z,68.61
2018-08-24T03:33:28.486Z,68.8
2018-08-24T03:33:54.671Z,68.9
2018-08-24T03:34:20.804Z,68.99
2018-08-24T03:34:46.988Z,69.09
2018-08-24T03:35:13.166Z,69.38
2018-08-24T03:35:39.345Z,69.67
2018-08-24T03:36:05.484Z,69.48
2018-08-24T03:36:31.614Z,69.67
2018-08-24T03:36:57.781Z,69.77
2018-08-24T03:37:23.915Z,69.57
2018-08-24T03:37:50.050Z,69.48
2018-08-24T03:38:16.207Z,69.77
2018-08-24T03:38:42.345Z,70.35
2018-08-24T03:39:08.528Z,69.67
2018-08-24T03:39:34.663Z,69.77
2018-08-24T03:40:00.789Z,69.87
2018-08-24T03:40:26.928Z,69.96
2018-08-24T03:40:53.061Z,70.06
2018-08-24T03:41:19.220Z,70.15
2018-08-24T03:41:45.359Z,70.6
2018-08-24T03:42:11.494Z,70.02
2018-08-24T03:42:37.628Z,70.12
2018-08-24T03:43:03.809Z,70.6
2018-08-24T03:43:29.972Z,70.5
2018-08-24T03:43:56.121Z,70.21
2018-08-24T03:44:22.255Z,70.21
2018-08-24T03:44:48.436Z,70.41
2018-08-24T03:45:14.575Z,70.6
2018-08-24T03:45:40.790Z,70.41
2018-08-24T03:46:06.892Z,71.18
2018-08-24T03:46:33.039Z,71.08
2018-08-24T03:46:59.170Z,70.98
2018-08-24T03:47:25.329Z,70.7
2018-08-24T03:47:51.489Z,71.28
2018-08-24T03:48:17.675Z,71.28
2018-08-24T03:48:43.836Z,71.37
2018-08-24T03:49:09.991Z,71.85
2018-08-24T03:49:36.126Z,71.66
2018-08-24T03:50:02.264Z,71.56
2018-08-24T03:50:28.392Z,71.76
2018-08-24T03:50:54.534Z,71.66
2018-08-24T03:51:20.668Z,71.95
2018-08-24T03:51:46.799Z,71.95
2018-08-24T03:52:12.939Z,71.85
2018-08-24T03:52:39.097Z,72.14
2018-08-24T03:53:05.295Z,71.95
2018-08-24T03:53:31.397Z,72.05
2018-08-24T03:53:57.538Z,71.66
2018-08-24T03:54:23.671Z,72.14
2018-08-24T03:54:49.808Z,72.05
2018-08-24T03:55:15.973Z,72.05
2018-08-24T03:55:42.153Z,71.95
2018-08-24T03:56:08.317Z,72.33
2018-08-24T03:56:34.446Z,72.33
2018-08-24T03:57:00.582Z,72.63
2018-08-24T03:57:26.716Z,72.53
2018-08-24T03:57:52.874Z,71.95
2018-08-24T03:58:19.032Z,71.85
2018-08-24T03:58:45.187Z,72.14
2018-08-24T03:59:11.323Z,72.05
2018-08-24T03:59:37.457Z,72.33
2018-08-24T04:00:03.593Z,72.53
2018-08-24T04:00:29.747Z,72.91
2018-08-24T04:00:55.876Z,72.91
2018-08-24T04:01:22.009Z,72.81
2018-08-24T04:01:48.141Z,72.72
2018-08-24T04:02:14.279Z,72.43
2018-08-24T04:02:40.414Z,72.33
2018-08-24T04:03:06.547Z,72.91
2018-08-24T04:03:32.692Z,72.33
2018-08-24T04:03:58.832Z,72.53
2018-08-24T04:04:24.995Z,72.53
2018-08-24T04:04:51.132Z,72.53
2018-08-24T04:05:17.295Z,71.85
2018-08-24T04:05:43.427Z,71.95
2018-08-24T04:06:09.555Z,71.95
2018-08-24T04:06:35.694Z,72.91
2018-08-24T04:07:01.851Z,71.85
2018-08-24T04:07:27.982Z,72.05
2018-08-24T04:07:54.115Z,72.05
2018-08-24T04:08:20.245Z,71.95
2018-08-24T04:08:46.383Z,72.14
2018-08-24T04:09:12.542Z,72.14
2018-08-24T04:09:38.667Z,72.14
2018-08-24T04:10:04.810Z,72.14
2018-08-24T04:10:30.980Z,71.95
2018-08-24T04:10:57.159Z,72.33
2018-08-24T04:11:23.317Z,72.33
2018-08-24T04:11:49.456Z,71.95
2018-08-24T04:12:15.589Z,71.95
2018-08-24T04:12:41.790Z,72.14
2018-08-24T04:13:07.954Z,72.05
2018-08-24T04:13:34.087Z,72.14
2018-08-24T04:14:00.245Z,72.05
2018-08-24T04:14:26.384Z,71.95
2018-08-24T04:14:52.552Z,72.72
2018-08-24T04:15:18.680Z,72.53
2018-08-24T04:15:44.839Z,72.91
2018-08-24T04:16:10.967Z,72.91
2018-08-24T04:16:37.106Z,72.88
2018-08-24T04:17:03.257Z,73.07
2018-08-24T04:17:29.412Z,72.97
2018-08-24T04:17:55.605Z,73.07
2018-08-24T04:18:21.710Z,72.78
2018-08-24T04:18:47.871Z,72.88
2018-08-24T04:19:14.040Z,73.16
2018-08-24T04:19:40.193Z,72.68
2018-08-24T04:20:06.334Z,72.88
2018-08-24T04:20:32.491Z,73.46
2018-08-24T04:20:58.648Z,73.46
2018-08-24T04:21:24.801Z,73.36
2018-08-24T04:21:50.930Z,73.84
2018-08-24T04:22:17.071Z,73.94
2018-08-24T04:22:43.211Z,73.55
2018-08-24T04:23:09.343Z,73.36
2018-08-24T04:23:35.497Z,73.16
2018-08-24T04:24:01.659Z,73.36
2018-08-24T04:24:27.818Z,73.55
2018-08-24T04:24:53.952Z,73.65
2018-08-24T04:25:20.103Z,73.65
2018-08-24T04:25:46.335Z,73.36
2018-08-24T04:26:12.515Z,73.65
2018-08-24T04:26:38.605Z,73.84
2018-08-24T04:27:04.746Z,73.65
2018-08-24T04:27:30.881Z,74.22
2018-08-24T04:27:57.023Z,74.13
2018-08-24T04:28:23.179Z,74.32
2018-08-24T04:28:49.336Z,74.41
2018-08-24T04:29:15.496Z,74.22
2018-08-24T04:29:41.625Z,74.22
2018-08-24T04:30:07.812Z,74.36
2018-08-24T04:30:33.991Z,74.8
2018-08-24T04:31:00.172Z,75.03
2018-08-24T04:31:26.324Z,74.9
2018-08-24T04:31:52.487Z,74.51
2018-08-24T04:32:18.648Z,74.9
2018-08-24T04:32:44.788Z,75.09
2018-08-24T04:33:10.919Z,74.9
2018-08-24T04:33:37.079Z,74.99
2018-08-24T04:34:03.219Z,74.8
2018-08-24T04:34:29.351Z,75.28
2018-08-24T04:34:55.514Z,75.67
2018-08-24T04:35:21.699Z,75.57
2018-08-24T04:35:47.868Z,75.67
2018-08-24T04:36:14.005Z,75.86
2018-08-24T04:36:40.168Z,75.96
2018-08-24T04:37:06.303Z,76.06
2018-08-24T04:37:32.457Z,76.25
2018-08-24T04:37:58.612Z,76.44
2018-08-24T04:38:24.749Z,76.53
2018-08-24T04:38:50.888Z,76.44
2018-08-24T04:39:17.047Z,76.53
2018-08-24T04:39:43.210Z,76.44
2018-08-24T04:40:09.529Z,76.73
2018-08-24T04:40:35.572Z,77.21
2018-08-24T04:41:01.725Z,77.31
2018-08-24T04:41:27.887Z,77.01
2018-08-24T04:41:54.017Z,77.59
2018-08-24T04:42:20.154Z,77.59
2018-08-24T04:42:46.289Z,77.98
2018-08-24T04:43:12.426Z,77.88
2018-08-24T04:43:38.589Z,77.88
2018-08-24T04:44:04.725Z,77.98
2018-08-24T04:44:30.882Z,78.17
2018-08-24T04:44:57.021Z,78.17
2018-08-24T04:45:23.229Z,78.17
2018-08-24T04:45:49.315Z,78.65
2018-08-24T04:46:15.480Z,78.94
2018-08-24T04:46:41.634Z,78.75
2018-08-24T04:47:07.800Z,78.56
2018-08-24T04:47:33.956Z,78.27
2018-08-24T04:48:00.105Z,78.46
2018-08-24T04:48:26.242Z,78.46
2018-08-24T04:48:52.406Z,78.56
2018-08-24T04:49:18.538Z,78.17
2018-08-24T04:49:44.672Z,78.46
2018-08-24T04:50:10.811Z,79.03
2018-08-24T04:50:36.972Z,78.85
2018-08-24T04:51:03.106Z,79.03
2018-08-24T04:51:29.290Z,78.94
2018-08-24T04:51:55.388Z,79.03
2018-08-24T04:52:21.526Z,79.71
2018-08-24T04:52:47.666Z,79.33
2018-08-24T04:53:13.795Z,79.43
2018-08-24T04:53:39.931Z,79.81
2018-08-24T04:54:06.071Z,79.81
2018-08-24T04:54:32.211Z,79.71
2018-08-24T04:54:58.356Z,79.61
2018-08-24T04:55:24.541Z,79.61
2018-08-24T04:55:50.724Z,79.9
2018-08-24T04:56:16.858Z,79.9
2018-08-24T04:56:43.019Z,79.9
2018-08-24T04:57:09.157Z,80.1
2018-08-24T04:57:35.291Z,80.19
2018-08-24T04:58:01.421Z,79.81
2018-08-24T04:58:27.579Z,80.19
2018-08-24T04:58:53.724Z,80.19
2018-08-24T04:59:19.897Z,80.48
2018-08-24T04:59:46.023Z,80
2018-08-24T05:00:12.163Z,80.68
2018-08-24T05:00:38.342Z,80.48
2018-08-24T05:01:04.484Z,80.38
2018-08-24T05:01:30.617Z,80.96
2018-08-24T05:01:56.748Z,80.77
2018-08-24T05:02:22.912Z,80.58
2018-08-24T05:02:49.066Z,80.58
2018-08-24T05:03:15.206Z,80.87
2018-08-24T05:03:41.386Z,80.48
2018-08-24T05:04:07.545Z,80.68
2018-08-24T05:04:33.687Z,80.68
2018-08-24T05:04:59.839Z,80.96
2018-08-24T05:05:25.968Z,80.58
2018-08-24T05:05:52.235Z,80.87
2018-08-24T05:06:18.254Z,81.16
2018-08-24T05:06:44.401Z,80.68
2018-08-24T05:07:10.532Z,80.68
2018-08-24T05:07:36.691Z,80.77
2018-08-24T05:08:02.829Z,80.87
2018-08-24T05:08:28.965Z,80.87
2018-08-24T05:08:55.089Z,80.87
2018-08-24T05:09:21.275Z,80.87
2018-08-24T05:09:47.412Z,80.68
2018-08-24T05:10:13.551Z,80.58
2018-08-24T05:10:39.715Z,80.96
2018-08-24T05:11:05.853Z,81.06
2018-08-24T05:11:32.003Z,81.06
2018-08-24T05:11:58.140Z,80.58
2018-08-24T05:12:24.278Z,80.38
2018-08-24T05:12:50.406Z,80.77
2018-08-24T05:13:16.567Z,80.48
2018-08-24T05:13:42.709Z,80.48
2018-08-24T05:14:08.839Z,81.06
2018-08-24T05:14:34.973Z,80.68
2018-08-24T05:15:01.174Z,81.06
2018-08-24T05:15:27.354Z,81.06
2018-08-24T05:15:53.494Z,80.77
2018-08-24T05:16:19.644Z,81.06
2018-08-24T05:16:45.776Z,80.68
2018-08-24T05:17:11.917Z,80.96
2018-08-24T05:17:38.058Z,80.87
2018-08-24T05:18:04.210Z,81.25
2018-08-24T05:18:30.354Z,80.77
2018-08-24T05:18:56.489Z,80.77
2018-08-24T05:19:22.644Z,80.77
2018-08-24T05:19:48.803Z,80.87
2018-08-24T05:20:14.935Z,80.96
2018-08-24T05:20:41.066Z,80.96
2018-08-24T05:21:07.266Z,81.06
2018-08-24T05:21:33.340Z,80.87
2018-08-24T05:21:59.523Z,80.77
2018-08-24T05:22:25.678Z,81.25
2018-08-24T05:22:51.804Z,81.25
2018-08-24T05:23:17.942Z,80.96
2018-08-24T05:23:44.085Z,81.73
2018-08-24T05:24:10.216Z,81.54
2018-08-24T05:24:36.378Z,81.54
2018-08-24T05:25:02.551Z,81.54
2018-08-24T05:25:28.690Z,81.54
2018-08-24T05:25:54.847Z,81.5
2018-08-24T05:26:20.977Z,81.63
2018-08-24T05:26:47.113Z,81.54
2018-08-24T05:27:13.245Z,81.06
2018-08-24T05:27:39.387Z,80.77
2018-08-24T05:28:05.608Z,80.87
2018-08-24T05:28:31.698Z,80.96
2018-08-24T05:28:57.828Z,80.96
2018-08-24T05:29:23.995Z,81.16
2018-08-24T05:29:50.153Z,80.58
2018-08-24T05:30:16.284Z,81.16
2018-08-24T05:30:42.439Z,80.73
2018-08-24T05:31:08.571Z,80.96
2018-08-24T05:31:34.753Z,80.68
2018-08-24T05:32:00.923Z,80.87
2018-08-24T05:32:27.085Z,80.77
2018-08-24T05:32:53.213Z,81.16
2018-08-24T05:33:19.349Z,81.25
2018-08-24T05:33:45.485Z,81.16
2018-08-24T05:34:11.642Z,81.16
2018-08-24T05:34:37.775Z,80.96
2018-08-24T05:35:03.908Z,80.96
2018-08-24T05:35:30.096Z,81.06
2018-08-24T05:35:56.206Z,81.25
2018-08-24T05:36:22.341Z,80.87
2018-08-24T05:36:48.479Z,80.87
2018-08-24T05:37:14.616Z,80.87
2018-08-24T05:37:40.750Z,80.96
2018-08-24T05:38:06.879Z,80.83